sensor_id;sensor_type;location;lat;lon;timestamp;P1;durP1;ratioP1;P2;durP2;ratioP2
72404;SDS011;60395;52.020;113.548;2023-02-01T00:05:44;14.90;;;5.27;;
72404;SDS011;60395;52.020;113.548;2023-02-01T00:09:01;5.97;;;4.43;;
72404;SDS011;60395;52.020;113.548;2023-02-01T00:15:08;2.67;;;1.73;;
72404;SDS011;60395;52.020;113.548;2023-02-01T00:18:11;2.42;;;1.33;;
72404;SDS011;60395;52.020;113.548;2023-02-01T00:21:15;2.67;;;1.52;;
72404;SDS011;60395;52.020;113.548;2023-02-01T00:24:20;2.37;;;1.43;;
72404;SDS011;60395;52.020;113.548;2023-02-01T00:27:23;6.80;;;1.97;;
72404;SDS011;60395;52.020;113.548;2023-02-01T00:30:26;3.67;;;1.73;;
72404;SDS011;60395;52.020;113.548;2023-02-01T00:33:30;7.28;;;2.80;;
72404;SDS011;60395;52.020;113.548;2023-02-01T00:36:34;6.00;;;2.23;;
72404;SDS011;60395;52.020;113.548;2023-02-01T00:39:37;5.77;;;3.50;;
72404;SDS011;60395;52.020;113.548;2023-02-01T00:42:42;21.92;;;3.08;;
72404;SDS011;60395;52.020;113.548;2023-02-01T00:45:45;6.20;;;2.27;;
72404;SDS011;60395;52.020;113.548;2023-02-01T00:48:49;9.35;;;2.28;;
72404;SDS011;60395;52.020;113.548;2023-02-01T00:51:52;6.00;;;2.20;;
72404;SDS011;60395;52.020;113.548;2023-02-01T00:54:56;4.45;;;2.65;;
72404;SDS011;60395;52.020;113.548;2023-02-01T00:57:59;2.60;;;1.77;;
72404;SDS011;60395;52.020;113.548;2023-02-01T01:04:12;3.70;;;2.20;;
72404;SDS011;60395;52.020;113.548;2023-02-01T01:07:15;8.93;;;4.30;;
72404;SDS011;60395;52.020;113.548;2023-02-01T01:10:19;8.88;;;2.58;;
72404;SDS011;60395;52.020;113.548;2023-02-01T01:13:23;6.95;;;3.10;;
72404;SDS011;60395;52.020;113.548;2023-02-01T01:16:27;2.17;;;1.40;;
72404;SDS011;60395;52.020;113.548;2023-02-01T01:19:33;4.63;;;2.95;;
72404;SDS011;60395;52.020;113.548;2023-02-01T01:22:36;8.53;;;4.37;;
72404;SDS011;60395;52.020;113.548;2023-02-01T01:25:39;7.60;;;3.60;;
72404;SDS011;60395;52.020;113.548;2023-02-01T01:28:43;4.13;;;2.40;;
72404;SDS011;60395;52.020;113.548;2023-02-01T01:31:47;4.93;;;1.95;;
72404;SDS011;60395;52.020;113.548;2023-02-01T01:34:50;6.22;;;3.38;;
72404;SDS011;60395;52.020;113.548;2023-02-01T01:37:53;1.77;;;1.03;;
72404;SDS011;60395;52.020;113.548;2023-02-01T01:40:56;2.93;;;1.57;;
72404;SDS011;60395;52.020;113.548;2023-02-01T01:44:00;4.27;;;2.90;;
72404;SDS011;60395;52.020;113.548;2023-02-01T01:47:06;6.78;;;2.72;;
72404;SDS011;60395;52.020;113.548;2023-02-01T01:50:10;4.50;;;4.00;;
72404;SDS011;60395;52.020;113.548;2023-02-01T01:53:20;3.63;;;1.40;;
72404;SDS011;60395;52.020;113.548;2023-02-01T01:56:27;8.73;;;2.75;;
72404;SDS011;60395;52.020;113.548;2023-02-01T01:59:32;3.97;;;1.83;;
72404;SDS011;60395;52.020;113.548;2023-02-01T02:02:40;5.03;;;2.83;;
72404;SDS011;60395;52.020;113.548;2023-02-01T02:05:46;6.72;;;2.90;;
72404;SDS011;60395;52.020;113.548;2023-02-01T02:08:51;10.50;;;4.10;;
72404;SDS011;60395;52.020;113.548;2023-02-01T02:11:56;13.27;;;3.95;;
72404;SDS011;60395;52.020;113.548;2023-02-01T02:15:00;17.00;;;4.60;;
72404;SDS011;60395;52.020;113.548;2023-02-01T02:18:20;12.73;;;4.80;;
72404;SDS011;60395;52.020;113.548;2023-02-01T02:21:52;10.88;;;4.97;;
72404;SDS011;60395;52.020;113.548;2023-02-01T02:38:34;10.52;;;3.92;;
72404;SDS011;60395;52.020;113.548;2023-02-01T02:52:24;21.02;;;7.95;;
72404;SDS011;60395;52.020;113.548;2023-02-01T02:55:46;24.45;;;8.65;;
72404;SDS011;60395;52.020;113.548;2023-02-01T02:58:54;13.40;;;6.20;;
72404;SDS011;60395;52.020;113.548;2023-02-01T03:02:16;18.73;;;6.15;;
72404;SDS011;60395;52.020;113.548;2023-02-01T03:05:45;17.73;;;7.20;;
72404;SDS011;60395;52.020;113.548;2023-02-01T03:08:54;20.48;;;5.80;;
72404;SDS011;60395;52.020;113.548;2023-02-01T03:12:03;20.85;;;6.80;;
72404;SDS011;60395;52.020;113.548;2023-02-01T03:22:07;13.65;;;4.50;;
72404;SDS011;60395;52.020;113.548;2023-02-01T03:25:15;8.52;;;3.13;;
72404;SDS011;60395;52.020;113.548;2023-02-01T03:28:28;4.82;;;2.42;;
72404;SDS011;60395;52.020;113.548;2023-02-01T03:31:37;8.70;;;2.50;;
72404;SDS011;60395;52.020;113.548;2023-02-01T03:34:41;17.67;;;2.92;;
72404;SDS011;60395;52.020;113.548;2023-02-01T03:37:45;10.45;;;2.17;;
72404;SDS011;60395;52.020;113.548;2023-02-01T03:40:53;8.82;;;2.90;;
72404;SDS011;60395;52.020;113.548;2023-02-01T03:47:37;6.25;;;1.48;;
72404;SDS011;60395;52.020;113.548;2023-02-01T03:50:46;8.57;;;2.97;;
72404;SDS011;60395;52.020;113.548;2023-02-01T03:53:54;10.68;;;3.00;;
72404;SDS011;60395;52.020;113.548;2023-02-01T03:57:01;14.32;;;3.00;;
72404;SDS011;60395;52.020;113.548;2023-02-01T04:00:20;17.15;;;3.20;;
72404;SDS011;60395;52.020;113.548;2023-02-01T04:03:28;7.47;;;2.50;;
72404;SDS011;60395;52.020;113.548;2023-02-01T04:06:33;20.23;;;4.05;;
72404;SDS011;60395;52.020;113.548;2023-02-01T04:12:40;18.23;;;3.53;;
72404;SDS011;60395;52.020;113.548;2023-02-01T04:15:43;6.30;;;3.13;;
72404;SDS011;60395;52.020;113.548;2023-02-01T04:21:51;12.65;;;3.67;;
72404;SDS011;60395;52.020;113.548;2023-02-01T04:24:54;7.05;;;2.92;;
72404;SDS011;60395;52.020;113.548;2023-02-01T04:27:57;12.95;;;3.75;;
72404;SDS011;60395;52.020;113.548;2023-02-01T04:34:04;7.65;;;2.38;;
72404;SDS011;60395;52.020;113.548;2023-02-01T04:37:08;9.85;;;2.35;;
72404;SDS011;60395;52.020;113.548;2023-02-01T04:40:11;10.60;;;3.65;;
72404;SDS011;60395;52.020;113.548;2023-02-01T04:43:15;34.10;;;5.13;;
72404;SDS011;60395;52.020;113.548;2023-02-01T04:46:19;7.35;;;3.40;;
72404;SDS011;60395;52.020;113.548;2023-02-01T04:49:22;11.77;;;3.25;;
72404;SDS011;60395;52.020;113.548;2023-02-01T04:52:27;8.70;;;3.20;;
72404;SDS011;60395;52.020;113.548;2023-02-01T04:55:30;8.23;;;3.30;;
72404;SDS011;60395;52.020;113.548;2023-02-01T04:58:34;3.95;;;1.63;;
72404;SDS011;60395;52.020;113.548;2023-02-01T05:01:37;5.63;;;1.98;;
72404;SDS011;60395;52.020;113.548;2023-02-01T05:04:40;6.15;;;2.47;;
72404;SDS011;60395;52.020;113.548;2023-02-01T05:07:45;7.70;;;2.72;;
72404;SDS011;60395;52.020;113.548;2023-02-01T05:10:49;15.13;;;2.72;;
72404;SDS011;60395;52.020;113.548;2023-02-01T05:13:52;6.10;;;1.67;;
72404;SDS011;60395;52.020;113.548;2023-02-01T05:16:55;6.43;;;2.55;;
72404;SDS011;60395;52.020;113.548;2023-02-01T05:19:58;17.05;;;4.75;;
72404;SDS011;60395;52.020;113.548;2023-02-01T05:23:03;13.90;;;4.70;;
72404;SDS011;60395;52.020;113.548;2023-02-01T05:26:06;6.80;;;2.65;;
72404;SDS011;60395;52.020;113.548;2023-02-01T05:29:09;6.00;;;2.25;;
72404;SDS011;60395;52.020;113.548;2023-02-01T05:32:14;2.53;;;1.65;;
72404;SDS011;60395;52.020;113.548;2023-02-01T05:35:23;2.40;;;1.08;;
72404;SDS011;60395;52.020;113.548;2023-02-01T05:38:27;8.20;;;2.72;;
72404;SDS011;60395;52.020;113.548;2023-02-01T05:41:32;6.05;;;2.55;;
72404;SDS011;60395;52.020;113.548;2023-02-01T05:44:35;5.20;;;2.55;;
72404;SDS011;60395;52.020;113.548;2023-02-01T05:47:38;8.25;;;3.03;;
72404;SDS011;60395;52.020;113.548;2023-02-01T05:50:42;7.72;;;3.60;;
72404;SDS011;60395;52.020;113.548;2023-02-01T05:53:45;3.50;;;1.77;;
72404;SDS011;60395;52.020;113.548;2023-02-01T05:56:49;6.47;;;1.88;;
72404;SDS011;60395;52.020;113.548;2023-02-01T05:59:52;8.15;;;2.72;;
72404;SDS011;60395;52.020;113.548;2023-02-01T06:02:55;8.50;;;1.98;;
72404;SDS011;60395;52.020;113.548;2023-02-01T06:05:58;10.25;;;2.42;;
72404;SDS011;60395;52.020;113.548;2023-02-01T06:09:03;10.20;;;2.95;;
72404;SDS011;60395;52.020;113.548;2023-02-01T06:12:06;7.28;;;2.75;;
72404;SDS011;60395;52.020;113.548;2023-02-01T06:15:10;9.35;;;2.75;;
72404;SDS011;60395;52.020;113.548;2023-02-01T06:21:18;4.32;;;1.73;;
72404;SDS011;60395;52.020;113.548;2023-02-01T06:24:25;7.75;;;2.78;;
72404;SDS011;60395;52.020;113.548;2023-02-01T06:27:29;10.85;;;3.42;;
72404;SDS011;60395;52.020;113.548;2023-02-01T06:30:33;13.80;;;3.42;;
72404;SDS011;60395;52.020;113.548;2023-02-01T06:33:36;13.87;;;4.40;;
72404;SDS011;60395;52.020;113.548;2023-02-01T06:36:41;11.73;;;3.45;;
72404;SDS011;60395;52.020;113.548;2023-02-01T06:39:44;10.27;;;3.40;;
72404;SDS011;60395;52.020;113.548;2023-02-01T06:42:48;12.05;;;4.75;;
72404;SDS011;60395;52.020;113.548;2023-02-01T06:45:52;8.23;;;3.30;;
72404;SDS011;60395;52.020;113.548;2023-02-01T06:48:55;9.75;;;3.72;;
72404;SDS011;60395;52.020;113.548;2023-02-01T06:51:59;10.05;;;3.90;;
72404;SDS011;60395;52.020;113.548;2023-02-01T06:55:02;7.00;;;2.83;;
72404;SDS011;60395;52.020;113.548;2023-02-01T06:58:06;5.55;;;2.30;;
72404;SDS011;60395;52.020;113.548;2023-02-01T07:01:09;11.75;;;3.05;;
72404;SDS011;60395;52.020;113.548;2023-02-01T07:04:13;6.90;;;2.95;;
72404;SDS011;60395;52.020;113.548;2023-02-01T07:07:16;6.65;;;2.33;;
72404;SDS011;60395;52.020;113.548;2023-02-01T07:10:21;5.63;;;2.45;;
72404;SDS011;60395;52.020;113.548;2023-02-01T07:13:25;6.28;;;2.20;;
72404;SDS011;60395;52.020;113.548;2023-02-01T07:16:28;7.63;;;3.20;;
72404;SDS011;60395;52.020;113.548;2023-02-01T07:19:33;184.60;;;56.50;;
72404;SDS011;60395;52.020;113.548;2023-02-01T07:22:36;17.30;;;4.05;;
72404;SDS011;60395;52.020;113.548;2023-02-01T07:25:39;5.95;;;2.28;;
72404;SDS011;60395;52.020;113.548;2023-02-01T07:28:43;10.57;;;2.25;;
72404;SDS011;60395;52.020;113.548;2023-02-01T07:31:46;7.15;;;2.50;;
72404;SDS011;60395;52.020;113.548;2023-02-01T07:34:49;8.73;;;3.67;;
72404;SDS011;60395;52.020;113.548;2023-02-01T07:37:52;13.27;;;3.15;;
72404;SDS011;60395;52.020;113.548;2023-02-01T07:41:01;6.60;;;3.67;;
72404;SDS011;60395;52.020;113.548;2023-02-01T07:44:06;11.38;;;3.03;;
72404;SDS011;60395;52.020;113.548;2023-02-01T07:47:09;6.47;;;3.60;;
72404;SDS011;60395;52.020;113.548;2023-02-01T07:50:13;7.35;;;3.10;;
72404;SDS011;60395;52.020;113.548;2023-02-01T07:53:16;5.50;;;2.15;;
72404;SDS011;60395;52.020;113.548;2023-02-01T07:56:19;15.00;;;5.05;;
72404;SDS011;60395;52.020;113.548;2023-02-01T07:59:24;4.75;;;1.75;;
72404;SDS011;60395;52.020;113.548;2023-02-01T08:02:28;4.07;;;1.38;;
72404;SDS011;60395;52.020;113.548;2023-02-01T08:05:31;5.30;;;1.77;;
72404;SDS011;60395;52.020;113.548;2023-02-01T08:08:34;7.32;;;2.60;;
72404;SDS011;60395;52.020;113.548;2023-02-01T08:11:37;7.53;;;3.28;;
72404;SDS011;60395;52.020;113.548;2023-02-01T08:14:40;22.45;;;8.35;;
72404;SDS011;60395;52.020;113.548;2023-02-01T08:17:50;10.18;;;4.45;;
72404;SDS011;60395;52.020;113.548;2023-02-01T08:20:54;6.25;;;2.33;;
72404;SDS011;60395;52.020;113.548;2023-02-01T08:23:57;13.25;;;5.10;;
72404;SDS011;60395;52.020;113.548;2023-02-01T08:27:01;14.38;;;6.15;;
72404;SDS011;60395;52.020;113.548;2023-02-01T08:30:05;22.15;;;6.75;;
72404;SDS011;60395;52.020;113.548;2023-02-01T08:33:09;10.32;;;2.20;;
72404;SDS011;60395;52.020;113.548;2023-02-01T08:36:15;13.00;;;5.03;;
72404;SDS011;60395;52.020;113.548;2023-02-01T08:39:19;10.38;;;4.25;;
72404;SDS011;60395;52.020;113.548;2023-02-01T08:42:22;7.30;;;3.38;;
72404;SDS011;60395;52.020;113.548;2023-02-01T08:45:44;5.78;;;3.08;;
72404;SDS011;60395;52.020;113.548;2023-02-01T08:48:49;15.68;;;6.43;;
72404;SDS011;60395;52.020;113.548;2023-02-01T08:51:52;15.30;;;6.00;;
72404;SDS011;60395;52.020;113.548;2023-02-01T08:54:59;6.85;;;3.28;;
72404;SDS011;60395;52.020;113.548;2023-02-01T08:58:03;20.00;;;8.93;;
72404;SDS011;60395;52.020;113.548;2023-02-01T09:01:07;16.92;;;6.63;;
72404;SDS011;60395;52.020;113.548;2023-02-01T09:04:13;13.95;;;6.60;;
72404;SDS011;60395;52.020;113.548;2023-02-01T09:07:17;12.32;;;5.35;;
72404;SDS011;60395;52.020;113.548;2023-02-01T09:10:21;17.67;;;5.45;;
72404;SDS011;60395;52.020;113.548;2023-02-01T09:13:36;18.08;;;7.32;;
72404;SDS011;60395;52.020;113.548;2023-02-01T09:16:39;18.48;;;8.07;;
72404;SDS011;60395;52.020;113.548;2023-02-01T09:19:43;13.30;;;5.93;;
72404;SDS011;60395;52.020;113.548;2023-02-01T09:25:51;15.45;;;5.00;;
72404;SDS011;60395;52.020;113.548;2023-02-01T09:28:55;26.60;;;8.43;;
72404;SDS011;60395;52.020;113.548;2023-02-01T09:31:59;23.90;;;8.82;;
72404;SDS011;60395;52.020;113.548;2023-02-01T09:35:05;19.05;;;7.35;;
72404;SDS011;60395;52.020;113.548;2023-02-01T09:38:09;20.90;;;7.50;;
72404;SDS011;60395;52.020;113.548;2023-02-01T09:48:18;30.08;;;11.15;;
72404;SDS011;60395;52.020;113.548;2023-02-01T09:51:25;15.23;;;6.90;;
72404;SDS011;60395;52.020;113.548;2023-02-01T09:54:39;13.45;;;5.20;;
72404;SDS011;60395;52.020;113.548;2023-02-01T09:58:06;9.77;;;4.17;;
72404;SDS011;60395;52.020;113.548;2023-02-01T10:01:18;5.03;;;2.00;;
72404;SDS011;60395;52.020;113.548;2023-02-01T10:04:24;8.90;;;2.85;;
72404;SDS011;60395;52.020;113.548;2023-02-01T10:10:56;12.48;;;3.08;;
72404;SDS011;60395;52.020;113.548;2023-02-01T10:21:25;3.60;;;2.00;;
72404;SDS011;60395;52.020;113.548;2023-02-01T10:25:02;6.60;;;2.53;;
72404;SDS011;60395;52.020;113.548;2023-02-01T10:28:28;5.88;;;2.03;;
72404;SDS011;60395;52.020;113.548;2023-02-01T10:31:38;4.18;;;1.75;;
72404;SDS011;60395;52.020;113.548;2023-02-01T10:34:44;1.55;;;1.00;;
72404;SDS011;60395;52.020;113.548;2023-02-01T10:37:55;10.25;;;3.00;;
72404;SDS011;60395;52.020;113.548;2023-02-01T10:41:09;9.23;;;3.63;;
72404;SDS011;60395;52.020;113.548;2023-02-01T10:44:19;3.50;;;1.60;;
72404;SDS011;60395;52.020;113.548;2023-02-01T10:47:28;5.07;;;2.08;;
72404;SDS011;60395;52.020;113.548;2023-02-01T10:54:04;11.70;;;3.33;;
72404;SDS011;60395;52.020;113.548;2023-02-01T10:57:25;8.35;;;2.83;;
72404;SDS011;60395;52.020;113.548;2023-02-01T11:00:40;4.75;;;1.88;;
72404;SDS011;60395;52.020;113.548;2023-02-01T11:04:10;10.85;;;3.00;;
72404;SDS011;60395;52.020;113.548;2023-02-01T11:07:24;8.73;;;3.17;;
72404;SDS011;60395;52.020;113.548;2023-02-01T11:10:40;9.65;;;3.67;;
72404;SDS011;60395;52.020;113.548;2023-02-01T11:13:45;2.55;;;1.85;;
72404;SDS011;60395;52.020;113.548;2023-02-01T11:17:12;16.92;;;4.57;;
72404;SDS011;60395;52.020;113.548;2023-02-01T11:23:39;11.68;;;5.10;;
72404;SDS011;60395;52.020;113.548;2023-02-01T11:26:48;13.27;;;5.68;;
72404;SDS011;60395;52.020;113.548;2023-02-01T11:29:55;3.65;;;2.13;;
72404;SDS011;60395;52.020;113.548;2023-02-01T11:33:03;16.63;;;6.07;;
72404;SDS011;60395;52.020;113.548;2023-02-01T11:36:09;20.42;;;7.85;;
72404;SDS011;60395;52.020;113.548;2023-02-01T11:42:29;21.17;;;7.72;;
72404;SDS011;60395;52.020;113.548;2023-02-01T11:45:33;21.42;;;7.95;;
72404;SDS011;60395;52.020;113.548;2023-02-01T11:48:41;15.10;;;6.10;;
72404;SDS011;60395;52.020;113.548;2023-02-01T11:58:48;10.43;;;4.47;;
72404;SDS011;60395;52.020;113.548;2023-02-01T12:05:27;20.47;;;6.83;;
72404;SDS011;60395;52.020;113.548;2023-02-01T12:32:29;17.35;;;7.03;;
72404;SDS011;60395;52.020;113.548;2023-02-01T12:35:58;24.80;;;7.65;;
72404;SDS011;60395;52.020;113.548;2023-02-01T12:42:29;12.93;;;6.20;;
72404;SDS011;60395;52.020;113.548;2023-02-01T12:45:46;13.65;;;6.20;;
72404;SDS011;60395;52.020;113.548;2023-02-01T12:49:19;21.85;;;8.23;;
72404;SDS011;60395;52.020;113.548;2023-02-01T12:52:30;25.65;;;10.18;;
72404;SDS011;60395;52.020;113.548;2023-02-01T12:55:43;26.40;;;9.98;;
72404;SDS011;60395;52.020;113.548;2023-02-01T12:58:54;30.77;;;10.60;;
72404;SDS011;60395;52.020;113.548;2023-02-01T13:02:19;27.98;;;9.15;;
72404;SDS011;60395;52.020;113.548;2023-02-01T13:09:26;9.52;;;4.88;;
72404;SDS011;60395;52.020;113.548;2023-02-01T13:12:54;15.00;;;4.95;;
72404;SDS011;60395;52.020;113.548;2023-02-01T13:16:40;32.30;;;6.20;;
72404;SDS011;60395;52.020;113.548;2023-02-01T13:19:53;11.73;;;6.63;;
72404;SDS011;60395;52.020;113.548;2023-02-01T13:23:10;13.43;;;5.72;;
72404;SDS011;60395;52.020;113.548;2023-02-01T13:26:19;11.20;;;4.00;;
72404;SDS011;60395;52.020;113.548;2023-02-01T13:29:24;18.20;;;5.07;;
72404;SDS011;60395;52.020;113.548;2023-02-01T13:42:59;11.50;;;6.15;;
72404;SDS011;60395;52.020;113.548;2023-02-01T13:46:09;12.60;;;4.43;;
72404;SDS011;60395;52.020;113.548;2023-02-01T13:49:21;11.57;;;5.55;;
72404;SDS011;60395;52.020;113.548;2023-02-01T13:52:42;12.60;;;4.97;;
72404;SDS011;60395;52.020;113.548;2023-02-01T13:55:55;12.02;;;4.75;;
72404;SDS011;60395;52.020;113.548;2023-02-01T13:59:00;9.68;;;3.70;;
72404;SDS011;60395;52.020;113.548;2023-02-01T14:03:01;10.75;;;3.95;;
72404;SDS011;60395;52.020;113.548;2023-02-01T14:06:14;8.88;;;3.30;;
72404;SDS011;60395;52.020;113.548;2023-02-01T14:09:32;5.47;;;2.90;;
72404;SDS011;60395;52.020;113.548;2023-02-01T14:12:48;6.43;;;3.22;;
72404;SDS011;60395;52.020;113.548;2023-02-01T14:19:25;6.93;;;2.55;;
72404;SDS011;60395;52.020;113.548;2023-02-01T14:22:32;8.45;;;3.55;;
72404;SDS011;60395;52.020;113.548;2023-02-01T14:25:37;9.13;;;4.28;;
72404;SDS011;60395;52.020;113.548;2023-02-01T14:28:49;10.82;;;4.70;;
72404;SDS011;60395;52.020;113.548;2023-02-01T14:35:19;13.65;;;3.47;;
72404;SDS011;60395;52.020;113.548;2023-02-01T14:38:27;2.83;;;2.35;;
72404;SDS011;60395;52.020;113.548;2023-02-01T14:41:34;7.50;;;2.15;;
72404;SDS011;60395;52.020;113.548;2023-02-01T14:44:39;7.55;;;2.53;;
72404;SDS011;60395;52.020;113.548;2023-02-01T14:51:09;9.82;;;3.05;;
72404;SDS011;60395;52.020;113.548;2023-02-01T14:54:16;7.15;;;2.83;;
72404;SDS011;60395;52.020;113.548;2023-02-01T14:57:23;4.43;;;1.98;;
72404;SDS011;60395;52.020;113.548;2023-02-01T15:00:29;5.22;;;3.03;;
72404;SDS011;60395;52.020;113.548;2023-02-01T15:07:05;8.52;;;2.08;;
72404;SDS011;60395;52.020;113.548;2023-02-01T15:10:14;4.70;;;1.90;;
72404;SDS011;60395;52.020;113.548;2023-02-01T15:13:24;7.50;;;2.78;;
72404;SDS011;60395;52.020;113.548;2023-02-01T15:16:29;6.55;;;2.33;;
72404;SDS011;60395;52.020;113.548;2023-02-01T15:19:32;2.88;;;2.22;;
72404;SDS011;60395;52.020;113.548;2023-02-01T15:22:35;6.90;;;3.05;;
72404;SDS011;60395;52.020;113.548;2023-02-01T15:25:38;3.93;;;2.63;;
72404;SDS011;60395;52.020;113.548;2023-02-01T15:28:42;3.70;;;1.80;;
72404;SDS011;60395;52.020;113.548;2023-02-01T15:31:50;10.82;;;3.47;;
72404;SDS011;60395;52.020;113.548;2023-02-01T15:34:58;5.18;;;2.55;;
72404;SDS011;60395;52.020;113.548;2023-02-01T15:41:30;5.55;;;3.00;;
72404;SDS011;60395;52.020;113.548;2023-02-01T15:44:36;4.15;;;1.60;;
72404;SDS011;60395;52.020;113.548;2023-02-01T15:47:48;4.25;;;1.77;;
72404;SDS011;60395;52.020;113.548;2023-02-01T15:50:53;4.13;;;2.42;;
72404;SDS011;60395;52.020;113.548;2023-02-01T15:53:58;4.22;;;2.28;;
72404;SDS011;60395;52.020;113.548;2023-02-01T15:57:04;2.85;;;2.35;;
72404;SDS011;60395;52.020;113.548;2023-02-01T16:00:18;3.97;;;2.40;;
72404;SDS011;60395;52.020;113.548;2023-02-01T16:06:44;11.75;;;4.15;;
72404;SDS011;60395;52.020;113.548;2023-02-01T16:10:25;4.57;;;2.40;;
72404;SDS011;60395;52.020;113.548;2023-02-01T16:13:29;10.60;;;2.35;;
72404;SDS011;60395;52.020;113.548;2023-02-01T16:16:32;8.55;;;3.33;;
72404;SDS011;60395;52.020;113.548;2023-02-01T16:19:35;6.95;;;2.78;;
72404;SDS011;60395;52.020;113.548;2023-02-01T16:22:39;8.45;;;3.70;;
72404;SDS011;60395;52.020;113.548;2023-02-01T16:25:42;15.40;;;3.33;;
72404;SDS011;60395;52.020;113.548;2023-02-01T16:28:46;7.32;;;3.25;;
72404;SDS011;60395;52.020;113.548;2023-02-01T16:31:49;12.52;;;4.03;;
72404;SDS011;60395;52.020;113.548;2023-02-01T16:34:53;14.88;;;5.82;;
72404;SDS011;60395;52.020;113.548;2023-02-01T16:37:58;10.35;;;4.70;;
72404;SDS011;60395;52.020;113.548;2023-02-01T16:41:02;10.27;;;3.67;;
72404;SDS011;60395;52.020;113.548;2023-02-01T16:44:07;15.63;;;6.30;;
72404;SDS011;60395;52.020;113.548;2023-02-01T16:47:20;6.93;;;3.10;;
72404;SDS011;60395;52.020;113.548;2023-02-01T16:50:25;5.53;;;2.97;;
72404;SDS011;60395;52.020;113.548;2023-02-01T16:53:29;10.18;;;4.38;;
72404;SDS011;60395;52.020;113.548;2023-02-01T16:56:42;8.60;;;2.95;;
72404;SDS011;60395;52.020;113.548;2023-02-01T16:59:47;19.02;;;7.43;;
72404;SDS011;60395;52.020;113.548;2023-02-01T17:02:51;6.53;;;3.95;;
72404;SDS011;60395;52.020;113.548;2023-02-01T17:08:59;7.10;;;4.57;;
72404;SDS011;60395;52.020;113.548;2023-02-01T17:12:04;11.48;;;5.50;;
72404;SDS011;60395;52.020;113.548;2023-02-01T17:15:08;33.15;;;10.95;;
72404;SDS011;60395;52.020;113.548;2023-02-01T17:18:13;29.40;;;11.70;;
72404;SDS011;60395;52.020;113.548;2023-02-01T17:21:18;35.53;;;13.30;;
72404;SDS011;60395;52.020;113.548;2023-02-01T17:24:22;45.15;;;14.65;;
72404;SDS011;60395;52.020;113.548;2023-02-01T17:27:39;28.05;;;10.65;;
72404;SDS011;60395;52.020;113.548;2023-02-01T17:30:43;32.05;;;14.52;;
72404;SDS011;60395;52.020;113.548;2023-02-01T17:33:46;52.60;;;14.75;;
72404;SDS011;60395;52.020;113.548;2023-02-01T17:36:49;40.40;;;15.93;;
72404;SDS011;60395;52.020;113.548;2023-02-01T17:39:53;33.00;;;10.98;;
72404;SDS011;60395;52.020;113.548;2023-02-01T17:42:56;58.65;;;16.45;;
72404;SDS011;60395;52.020;113.548;2023-02-01T17:49:08;74.77;;;21.27;;
72404;SDS011;60395;52.020;113.548;2023-02-01T17:52:15;49.45;;;20.70;;
72404;SDS011;60395;52.020;113.548;2023-02-01T17:55:20;90.73;;;30.83;;
72404;SDS011;60395;52.020;113.548;2023-02-01T17:58:27;72.77;;;26.10;;
72404;SDS011;60395;52.020;113.548;2023-02-01T18:01:37;90.70;;;27.57;;
72404;SDS011;60395;52.020;113.548;2023-02-01T18:04:42;66.10;;;22.70;;
72404;SDS011;60395;52.020;113.548;2023-02-01T18:07:45;68.53;;;25.13;;
72404;SDS011;60395;52.020;113.548;2023-02-01T18:10:49;65.60;;;18.60;;
72404;SDS011;60395;52.020;113.548;2023-02-01T18:13:53;59.60;;;21.40;;
72404;SDS011;60395;52.020;113.548;2023-02-01T18:16:57;59.93;;;21.63;;
72404;SDS011;60395;52.020;113.548;2023-02-01T18:20:00;49.83;;;18.63;;
72404;SDS011;60395;52.020;113.548;2023-02-01T18:23:03;50.53;;;19.55;;
72404;SDS011;60395;52.020;113.548;2023-02-01T18:26:07;56.67;;;19.70;;
72404;SDS011;60395;52.020;113.548;2023-02-01T18:29:13;80.67;;;24.07;;
72404;SDS011;60395;52.020;113.548;2023-02-01T18:32:17;109.60;;;27.13;;
72404;SDS011;60395;52.020;113.548;2023-02-01T18:35:21;41.97;;;16.85;;
72404;SDS011;60395;52.020;113.548;2023-02-01T18:38:31;63.20;;;20.80;;
72404;SDS011;60395;52.020;113.548;2023-02-01T18:41:35;35.13;;;15.60;;
72404;SDS011;60395;52.020;113.548;2023-02-01T18:44:38;69.57;;;22.50;;
72404;SDS011;60395;52.020;113.548;2023-02-01T18:47:41;64.15;;;23.05;;
72404;SDS011;60395;52.020;113.548;2023-02-01T18:50:44;34.80;;;12.63;;
72404;SDS011;60395;52.020;113.548;2023-02-01T18:53:47;38.00;;;12.65;;
72404;SDS011;60395;52.020;113.548;2023-02-01T18:56:51;23.60;;;11.13;;
72404;SDS011;60395;52.020;113.548;2023-02-01T18:59:54;36.47;;;14.65;;
72404;SDS011;60395;52.020;113.548;2023-02-01T19:02:57;18.98;;;10.18;;
72404;SDS011;60395;52.020;113.548;2023-02-01T19:06:00;14.18;;;7.85;;
72404;SDS011;60395;52.020;113.548;2023-02-01T19:09:04;44.92;;;11.23;;
72404;SDS011;60395;52.020;113.548;2023-02-01T19:12:07;22.67;;;7.82;;
72404;SDS011;60395;52.020;113.548;2023-02-01T19:15:11;9.98;;;5.65;;
72404;SDS011;60395;52.020;113.548;2023-02-01T19:18:17;27.23;;;9.20;;
72404;SDS011;60395;52.020;113.548;2023-02-01T19:21:21;26.43;;;7.47;;
72404;SDS011;60395;52.020;113.548;2023-02-01T19:24:24;22.38;;;6.78;;
72404;SDS011;60395;52.020;113.548;2023-02-01T19:27:29;9.77;;;5.77;;
72404;SDS011;60395;52.020;113.548;2023-02-01T19:30:32;8.98;;;4.45;;
72404;SDS011;60395;52.020;113.548;2023-02-01T19:33:35;11.35;;;4.80;;
72404;SDS011;60395;52.020;113.548;2023-02-01T19:36:39;18.75;;;6.45;;
72404;SDS011;60395;52.020;113.548;2023-02-01T19:39:43;12.20;;;6.30;;
72404;SDS011;60395;52.020;113.548;2023-02-01T19:42:46;16.83;;;5.95;;
72404;SDS011;60395;52.020;113.548;2023-02-01T19:45:50;9.43;;;4.88;;
72404;SDS011;60395;52.020;113.548;2023-02-01T19:48:54;18.47;;;7.17;;
72404;SDS011;60395;52.020;113.548;2023-02-01T19:51:57;24.98;;;8.35;;
72404;SDS011;60395;52.020;113.548;2023-02-01T19:55:01;21.02;;;9.52;;
72404;SDS011;60395;52.020;113.548;2023-02-01T19:58:05;18.77;;;5.67;;
72404;SDS011;60395;52.020;113.548;2023-02-01T20:01:08;28.30;;;5.13;;
72404;SDS011;60395;52.020;113.548;2023-02-01T20:04:13;11.57;;;5.37;;
72404;SDS011;60395;52.020;113.548;2023-02-01T20:07:17;15.43;;;4.77;;
72404;SDS011;60395;52.020;113.548;2023-02-01T20:10:21;9.35;;;4.38;;
72404;SDS011;60395;52.020;113.548;2023-02-01T20:13:24;10.93;;;5.00;;
72404;SDS011;60395;52.020;113.548;2023-02-01T20:16:27;4.90;;;3.03;;
72404;SDS011;60395;52.020;113.548;2023-02-01T20:19:31;17.92;;;6.57;;
72404;SDS011;60395;52.020;113.548;2023-02-01T20:25:37;24.43;;;8.93;;
72404;SDS011;60395;52.020;113.548;2023-02-01T20:28:40;22.70;;;8.23;;
72404;SDS011;60395;52.020;113.548;2023-02-01T20:31:44;32.88;;;14.70;;
72404;SDS011;60395;52.020;113.548;2023-02-01T20:34:48;17.33;;;6.77;;
72404;SDS011;60395;52.020;113.548;2023-02-01T20:37:54;9.33;;;4.00;;
72404;SDS011;60395;52.020;113.548;2023-02-01T20:41:01;11.97;;;5.97;;
72404;SDS011;60395;52.020;113.548;2023-02-01T20:44:05;21.77;;;7.43;;
72404;SDS011;60395;52.020;113.548;2023-02-01T20:47:08;13.27;;;4.40;;
72404;SDS011;60395;52.020;113.548;2023-02-01T20:50:11;4.32;;;3.17;;
72404;SDS011;60395;52.020;113.548;2023-02-01T20:53:14;6.10;;;3.10;;